createdAt,value
2019-05-23T00:01:23.041Z,99383.45
2019-05-23T00:04:08.028Z,99388.04
2019-05-23T00:06:40.823Z,99383.17
2019-05-23T00:09:13.986Z,99391.83
2019-05-23T00:11:49.712Z,99387.45
2019-05-23T00:14:34.325Z,99385.17
2019-05-23T00:17:06.630Z,99386.42
2019-05-23T00:19:40.629Z,99380.27
2019-05-23T00:22:13.467Z,99385.45
2019-05-23T00:24:48.111Z,99392.39
2019-05-23T00:27:22.499Z,99387.45
2019-05-23T00:29:55.007Z,99387.52
2019-05-23T00:32:33.265Z,99393.88
2019-05-23T00:35:06.760Z,99395.73
2019-05-23T00:37:40.675Z,99393.58
2019-05-23T00:40:13.392Z,99390.16
2019-05-23T00:42:46.231Z,99390.86
2019-05-23T00:45:21.245Z,99388.36
2019-05-23T00:47:55.225Z,99390.33
2019-05-23T00:50:28.267Z,99386.42
2019-05-23T00:53:00.785Z,99388.36
2019-05-23T00:55:33.253Z,99390.38
2019-05-23T00:58:05.903Z,99390.67
2019-05-23T01:00:37.770Z,99390.67
2019-05-23T01:03:11.462Z,99385.20
2019-05-23T01:05:43.943Z,99376.87
2019-05-23T01:08:16.964Z,99375.91
2019-05-23T01:10:50.114Z,99373.66
2019-05-23T01:13:23.536Z,99368.13
2019-05-23T01:15:56.143Z,99364.34
2019-05-23T01:18:28.919Z,99355.88
2019-05-23T01:21:37.765Z,99362.31
2019-05-23T01:24:27.756Z,99374.13
2019-05-23T01:27:02.046Z,99371.23
2019-05-23T01:29:40.045Z,99361.77
2019-05-23T01:32:31.323Z,99368.13
2019-05-23T01:35:05.178Z,99377.88
2019-05-23T01:37:36.635Z,99381.19
2019-05-23T01:40:10.872Z,99361.71
2019-05-23T01:42:43.937Z,99344.91
2019-05-23T01:45:17.758Z,99342.28
2019-05-23T01:47:50.519Z,99356.13
2019-05-23T01:50:26.694Z,99349.71
2019-05-23T01:52:59.643Z,99353.09
2019-05-23T01:55:32.633Z,99360.85
2019-05-23T01:58:05.674Z,99364.73
2019-05-23T02:00:38.384Z,99360.39
2019-05-23T02:03:10.786Z,99357.56
2019-05-23T02:05:44.120Z,99355.47
2019-05-23T02:08:16.892Z,99358.48
2019-05-23T02:10:48.997Z,99366.98
2019-05-23T02:13:21.988Z,99368.75
2019-05-23T02:15:54.743Z,99367.27
2019-05-23T02:18:28.432Z,99366.65
2019-05-23T02:21:00.966Z,99358.76
2019-05-23T02:23:32.593Z,99355.24
2019-05-23T02:26:04.888Z,99354.63
2019-05-23T02:28:37.474Z,99351.30
2019-05-23T02:31:11.586Z,99350.55
2019-05-23T02:33:45.398Z,99358.98
2019-05-23T02:36:17.741Z,99364.10
2019-05-23T02:39:16.094Z,99362.39
2019-05-23T02:42:07.256Z,99365.63
2019-05-23T02:44:39.624Z,99357.17
2019-05-23T02:47:37.097Z,99360.42
2019-05-23T02:50:14.721Z,99360.11
2019-05-23T02:52:51.685Z,99353.30
2019-05-23T02:55:33.354Z,99349.12
2019-05-23T02:58:36.562Z,99352.58
2019-05-23T03:01:48.923Z,99355.59
2019-05-23T03:04:25.115Z,99355.09
2019-05-23T03:06:58.872Z,99347.57
2019-05-23T03:09:36.323Z,99347.47
2019-05-23T03:12:12.175Z,99338.84
2019-05-23T03:14:45.843Z,99337.77
2019-05-23T03:17:21.174Z,99333.25
2019-05-23T03:19:56.867Z,99333.39
2019-05-23T03:22:40.358Z,99332.52
2019-05-23T03:25:55.348Z,99330.01
2019-05-23T03:28:29.958Z,99323.37
2019-05-23T03:31:27.054Z,99320.06
2019-05-23T03:33:41.016Z,99306.28
2019-05-23T03:36:13.337Z,99305.03
2019-05-23T03:38:49.195Z,99300.17
2019-05-23T03:41:23.169Z,99293.60
2019-05-23T03:43:55.421Z,99292.69
2019-05-23T03:46:29.618Z,99297.91
2019-05-23T03:49:02.328Z,99295.07
2019-05-23T03:51:36.769Z,99295.14
2019-05-23T03:54:11.245Z,99291.58
2019-05-23T03:56:42.704Z,99301.66
2019-05-23T03:59:15.808Z,99295.59
2019-05-23T04:01:49.597Z,99301.45
2019-05-23T04:04:22.290Z,99287.30
2019-05-23T04:06:55.055Z,99292.34
2019-05-23T04:09:28.021Z,99295.69
2019-05-23T04:12:19.057Z,99303.98
2019-05-23T04:15:01.618Z,99311.28
2019-05-23T04:17:35.984Z,99316.27
2019-05-23T04:20:09.034Z,99317.26
2019-05-23T04:22:41.944Z,99323.36
2019-05-23T04:25:40.688Z,99325.17
2019-05-23T04:28:22.266Z,99325.50
2019-05-23T04:30:52.719Z,99322.80
2019-05-23T04:33:25.235Z,99319.48
2019-05-23T04:35:57.452Z,99323.59
2019-05-23T04:38:29.143Z,99322.43
2019-05-23T04:41:01.682Z,99315.83
2019-05-23T04:43:33.835Z,99314.66
2019-05-23T04:46:06.107Z,99324.09
2019-05-23T04:48:39.104Z,99321.14
2019-05-23T04:51:11.004Z,99319.17
2019-05-23T04:53:43.207Z,99321.84
2019-05-23T04:56:16.139Z,99331.11
2019-05-23T04:58:47.777Z,99332.78
2019-05-23T05:01:21.722Z,99338.43
2019-05-23T05:03:55.295Z,99331.72
2019-05-23T05:06:27.359Z,99332.52
2019-05-23T05:09:00.584Z,99330.37
2019-05-23T05:11:33.439Z,99338.82
2019-05-23T05:14:08.475Z,99344.44
2019-05-23T05:16:41.187Z,99345.42
2019-05-23T05:19:12.744Z,99345.77
2019-05-23T05:21:44.717Z,99343.10
2019-05-23T05:24:16.406Z,99341.12
2019-05-23T05:26:48.765Z,99347.09
2019-05-23T05:29:20.857Z,99344.44
2019-05-23T05:31:52.454Z,99346.41
2019-05-23T05:34:25.260Z,99344.45
2019-05-23T05:36:57.885Z,99347.41
2019-05-23T05:39:30.333Z,99340.67
2019-05-23T05:42:02.600Z,99336.75
2019-05-23T05:44:34.412Z,99346.81
2019-05-23T05:47:08.613Z,99346.16
2019-05-23T05:49:42.323Z,99348.27
2019-05-23T05:52:16.412Z,99346.84
2019-05-23T05:54:48.424Z,99342.79
2019-05-23T05:57:20.002Z,99355.44
2019-05-23T05:59:52.517Z,99362.55
2019-05-23T06:02:26.344Z,99351.58
2019-05-23T06:04:58.097Z,99353.70
2019-05-23T06:07:35.625Z,99354.22
2019-05-23T06:10:15.508Z,99357.10
2019-05-23T06:12:51.137Z,99359.33
2019-05-23T06:15:25.422Z,99367.13
2019-05-23T06:17:57.201Z,99365.39
2019-05-23T06:20:31.462Z,99372.44
2019-05-23T06:23:05.731Z,99357.69
2019-05-23T06:25:38.128Z,99374.45
2019-05-23T06:28:13.760Z,99370.01
2019-05-23T06:30:46.608Z,99368.55
2019-05-23T06:33:23.652Z,99368.39
2019-05-23T06:35:53.166Z,99371.69
2019-05-23T06:38:25.005Z,99374.60
2019-05-23T06:40:57.261Z,99380.66
2019-05-23T06:43:41.929Z,99386.66
2019-05-23T06:46:14.999Z,99385.63
2019-05-23T06:48:50.034Z,99385.09
2019-05-23T06:51:22.292Z,99393.72
2019-05-23T06:53:55.503Z,99386.63
2019-05-23T06:56:28.414Z,99392.08
2019-05-23T06:59:03.239Z,99394.53
2019-05-23T07:01:35.880Z,99401.25
2019-05-23T07:04:08.774Z,99399.69
2019-05-23T07:06:51.125Z,99399.94
2019-05-23T07:09:24.418Z,99386.64
2019-05-23T07:12:00.817Z,99391.55
2019-05-23T07:14:33.896Z,99395.53
2019-05-23T07:17:06.841Z,99394.96
2019-05-23T07:19:41.579Z,99398.22
2019-05-23T07:22:18.030Z,99400.20
2019-05-23T07:24:58.224Z,99402.17
2019-05-23T07:27:30.587Z,99402.85
2019-05-23T07:30:04.371Z,99399.66
2019-05-23T07:32:39.368Z,99402.20
2019-05-23T07:35:12.036Z,99402.88
2019-05-23T07:37:44.709Z,99404.78
2019-05-23T07:40:24.085Z,99407.39
2019-05-23T07:43:01.664Z,99414.19
2019-05-23T07:45:39.831Z,99412.56
2019-05-23T07:48:14.119Z,99417.00
2019-05-23T07:50:48.293Z,99420.00
2019-05-23T07:53:46.261Z,99417.38
2019-05-23T07:56:21.023Z,99421.45
2019-05-23T07:58:53.638Z,99411.87
2019-05-23T08:01:28.460Z,99411.09
2019-05-23T08:04:18.031Z,99415.85
2019-05-23T08:06:35.869Z,99423.11
2019-05-23T08:09:09.926Z,99420.77
2019-05-23T08:12:10.516Z,99419.42
2019-05-23T08:14:43.203Z,99427.50
2019-05-23T08:17:15.608Z,99416.73
2019-05-23T08:19:50.061Z,99418.50
2019-05-23T08:22:21.562Z,99429.41
2019-05-23T08:24:57.290Z,99426.22
2019-05-23T08:27:31.426Z,99424.73
2019-05-23T08:30:06.241Z,99423.30
2019-05-23T08:32:39.079Z,99419.88
2019-05-23T08:35:15.680Z,99430.20
2019-05-23T08:37:45.153Z,99419.40
2019-05-23T08:40:18.893Z,99414.48
2019-05-23T08:42:50.488Z,99410.38
2019-05-23T08:45:23.930Z,99411.61
2019-05-23T08:47:56.424Z,99407.08
2019-05-23T08:50:29.373Z,99406.80
2019-05-23T08:53:02.083Z,99401.86
2019-05-23T08:55:37.362Z,99404.22
2019-05-23T08:58:11.711Z,99406.46
2019-05-23T09:00:47.641Z,99401.50
2019-05-23T09:03:20.230Z,99407.93
2019-05-23T09:05:53.036Z,99406.87
2019-05-23T09:08:26.320Z,99402.51
2019-05-23T09:10:58.436Z,99393.35
2019-05-23T09:13:30.998Z,99401.73
2019-05-23T09:16:03.480Z,99404.22
2019-05-23T09:18:35.890Z,99413.05
2019-05-23T09:21:08.277Z,99409.72
2019-05-23T09:23:40.701Z,99407.61
2019-05-23T09:26:16.087Z,99394.36
2019-05-23T09:28:47.694Z,99389.83
2019-05-23T09:31:23.009Z,99396.67
2019-05-23T09:33:55.608Z,99375.72
2019-05-23T09:36:29.756Z,99382.55
2019-05-23T09:39:10.366Z,99379.16
2019-05-23T09:41:42.037Z,99387.27
2019-05-23T09:44:16.930Z,99385.13
2019-05-23T09:46:48.913Z,99381.43
2019-05-23T09:49:20.569Z,99378.44
2019-05-23T09:51:57.341Z,99370.74
2019-05-23T09:54:27.941Z,99368.27
2019-05-23T09:57:00.600Z,99370.48
2019-05-23T09:59:33.174Z,99364.77
2019-05-23T10:02:06.527Z,99354.81
2019-05-23T10:04:38.881Z,99365.73
2019-05-23T10:07:10.926Z,99362.38
2019-05-23T10:09:43.414Z,99363.63
2019-05-23T10:12:22.711Z,99355.72
2019-05-23T10:14:54.251Z,99351.97
2019-05-23T10:17:26.597Z,99349.16
2019-05-23T10:19:59.125Z,99352.81
2019-05-23T10:22:31.581Z,99352.23
2019-05-23T10:25:03.835Z,99342.21
2019-05-23T10:27:35.511Z,99342.81
2019-05-23T10:30:09.977Z,99344.05
2019-05-23T10:32:42.255Z,99338.80
2019-05-23T10:35:14.505Z,99337.91
2019-05-23T10:37:46.941Z,99346.06
2019-05-23T10:40:19.361Z,99349.97
2019-05-23T10:42:51.791Z,99340.15
2019-05-23T10:45:24.046Z,99338.97
2019-05-23T10:47:55.855Z,99333.28
2019-05-23T10:50:41.955Z,99332.20
2019-05-23T10:53:02.358Z,99336.65
2019-05-23T10:55:35.078Z,99333.19
2019-05-23T10:58:08.145Z,99332.64
2019-05-23T11:00:41.353Z,99332.71
2019-05-23T11:03:15.200Z,99333.11
2019-05-23T11:05:47.942Z,99328.91
2019-05-23T11:08:20.511Z,99316.20
2019-05-23T11:10:53.069Z,99314.00
2019-05-23T11:13:27.609Z,99317.44
2019-05-23T11:16:00.065Z,99320.83
2019-05-23T11:18:32.132Z,99318.19
2019-05-23T11:21:03.716Z,99319.11
2019-05-23T11:23:40.868Z,99310.00
2019-05-23T11:26:13.621Z,99311.33
2019-05-23T11:28:45.271Z,99313.39
2019-05-23T11:31:18.293Z,99316.63
2019-05-23T11:33:49.770Z,99315.30
2019-05-23T11:36:34.563Z,99308.22
2019-05-23T11:38:56.062Z,99304.41
2019-05-23T11:41:27.674Z,99298.84
2019-05-23T11:44:00.178Z,99302.61
2019-05-23T11:46:35.810Z,99299.78
2019-05-23T11:49:08.959Z,99295.41
2019-05-23T11:51:41.075Z,99281.90
2019-05-23T11:54:12.649Z,99280.23
2019-05-23T11:56:46.616Z,99273.83
2019-05-23T11:59:19.160Z,99274.74
2019-05-23T12:02:13.554Z,99266.67
2019-05-23T12:04:45.970Z,99279.15
2019-05-23T12:07:30.489Z,99290.42
2019-05-23T12:10:03.015Z,99291.20
2019-05-23T12:12:34.977Z,99287.57
2019-05-23T12:15:11.492Z,99293.59
2019-05-23T12:17:46.195Z,99292.22
2019-05-23T12:20:21.548Z,99295.37
2019-05-23T12:22:53.214Z,99291.81
2019-05-23T12:25:27.489Z,99286.22
2019-05-23T12:27:59.654Z,99282.14
2019-05-23T12:30:33.902Z,99288.09
2019-05-23T12:33:06.238Z,99288.83
2019-05-23T12:35:37.923Z,99292.59
2019-05-23T12:38:10.033Z,99295.11
2019-05-23T12:40:44.736Z,99301.08
2019-05-23T12:43:16.996Z,99296.04
2019-05-23T12:45:49.475Z,99292.05
2019-05-23T12:48:38.432Z,99303.28
2019-05-23T12:51:11.377Z,99314.83
2019-05-23T12:53:43.845Z,99319.97
2019-05-23T12:56:17.425Z,99322.16
2019-05-23T12:58:50.358Z,99319.00
2019-05-23T13:01:23.002Z,99311.81
2019-05-23T13:04:11.145Z,99319.27
2019-05-23T13:06:43.281Z,99317.03
2019-05-23T13:09:14.858Z,99314.09
2019-05-23T13:11:47.105Z,99323.95
2019-05-23T13:14:20.317Z,99322.35
2019-05-23T13:16:54.235Z,99317.61
2019-05-23T13:19:26.896Z,99312.12
2019-05-23T13:21:59.088Z,99308.43
2019-05-23T13:24:52.045Z,99306.74
2019-05-23T13:27:14.410Z,99306.44
2019-05-23T13:29:46.479Z,99302.53
2019-05-23T13:32:18.694Z,99297.14
2019-05-23T13:34:50.707Z,99298.36
2019-05-23T13:37:22.912Z,99298.89
2019-05-23T13:39:54.751Z,99296.98
2019-05-23T13:42:26.243Z,99291.92
2019-05-23T13:44:58.771Z,99294.41
2019-05-23T13:47:31.125Z,99298.53
2019-05-23T13:50:03.378Z,99290.03
2019-05-23T13:52:36.232Z,99288.37
2019-05-23T13:55:08.259Z,99279.60
2019-05-23T13:57:40.517Z,99281.83
2019-05-23T14:00:16.619Z,99277.34
2019-05-23T14:02:48.039Z,99266.30
2019-05-23T14:05:20.863Z,99272.52
2019-05-23T14:08:10.037Z,99272.80
2019-05-23T14:10:26.896Z,99264.74
2019-05-23T14:12:58.935Z,99259.94
2019-05-23T14:15:41.085Z,99265.18
2019-05-23T14:18:17.253Z,99259.42
2019-05-23T14:20:49.403Z,99256.51
2019-05-23T14:23:29.060Z,99262.64
2019-05-23T14:26:01.849Z,99262.64
2019-05-23T14:28:34.305Z,99259.98
2019-05-23T14:31:14.853Z,99254.72
2019-05-23T14:33:50.277Z,99257.39
2019-05-23T14:36:47.651Z,99255.55
2019-05-23T14:39:31.096Z,99253.01
2019-05-23T14:42:18.288Z,99245.55
2019-05-23T14:44:50.922Z,99243.77
2019-05-23T14:47:40.628Z,99238.20
2019-05-23T14:50:35.101Z,99238.36
2019-05-23T14:53:07.400Z,99234.64
2019-05-23T14:55:39.911Z,99230.80
2019-05-23T14:58:11.798Z,99236.77
2019-05-23T15:00:44.745Z,99241.53
2019-05-23T15:03:17.775Z,99235.27
2019-05-23T15:05:50.086Z,99239.59
2019-05-23T15:08:22.012Z,99235.27
2019-05-23T15:10:53.739Z,99229.20
2019-05-23T15:13:25.670Z,99219.38
2019-05-23T15:15:57.923Z,99218.72
2019-05-23T15:18:30.039Z,99217.65
2019-05-23T15:21:01.915Z,99217.89
2019-05-23T15:23:33.401Z,99221.66
2019-05-23T15:26:21.764Z,99211.28
2019-05-23T15:28:39.893Z,99212.70
2019-05-23T15:31:11.698Z,99216.55
2019-05-23T15:33:44.060Z,99217.33
2019-05-23T15:36:16.177Z,99208.84
2019-05-23T15:38:48.763Z,99214.98
2019-05-23T15:41:21.021Z,99211.50
2019-05-23T15:43:52.648Z,99212.91
2019-05-23T15:46:24.854Z,99218.23
2019-05-23T15:48:56.921Z,99213.92
2019-05-23T15:51:34.542Z,99217.96
2019-05-23T15:54:29.183Z,99215.63
2019-05-23T15:57:23.528Z,99220.34
2019-05-23T16:00:00.022Z,99215.97
2019-05-23T16:02:36.095Z,99215.83
2019-05-23T16:05:10.089Z,99218.16
2019-05-23T16:07:44.999Z,99214.50
2019-05-23T16:10:18.206Z,99213.69
2019-05-23T16:14:38.260Z,99220.70
2019-05-23T16:15:35.544Z,99216.94
2019-05-23T16:18:07.927Z,99214.14
2019-05-23T16:20:41.400Z,99220.61
2019-05-23T16:23:13.868Z,99216.78
2019-05-23T16:25:48.717Z,99218.45
2019-05-23T16:28:21.275Z,99223.44
2019-05-23T16:30:58.373Z,99228.69
2019-05-23T16:33:38.898Z,99234.34
2019-05-23T16:36:11.632Z,99239.70
2019-05-23T16:38:43.396Z,99232.36
2019-05-23T16:41:26.118Z,99240.06
2019-05-23T16:44:08.899Z,99242.53
2019-05-23T16:46:46.122Z,99242.67
2019-05-23T16:49:41.663Z,99241.97
2019-05-23T16:52:31.592Z,99244.67
2019-05-23T16:55:21.774Z,99247.89
2019-05-23T16:58:09.038Z,99241.84
2019-05-23T17:01:01.300Z,99240.74
2019-05-23T17:04:02.727Z,99251.23
2019-05-23T17:06:54.493Z,99245.44
2019-05-23T17:10:06.924Z,99250.80
2019-05-23T17:12:42.856Z,99244.27
2019-05-23T17:15:45.604Z,99244.25
2019-05-23T17:18:41.921Z,99242.80
2019-05-23T17:21:27.383Z,99245.48
2019-05-23T17:24:26.531Z,99243.83
2019-05-23T17:30:44.617Z,99240.52
2019-05-23T17:37:39.295Z,99250.25
2019-05-23T17:41:28.523Z,99256.27
2019-05-23T17:43:44.669Z,99257.96
2019-05-23T17:46:27.484Z,99258.66
2019-05-23T17:49:14.583Z,99267.29
2019-05-23T17:51:54.860Z,99267.95
2019-05-23T17:54:32.971Z,99269.28
2019-05-23T18:01:32.196Z,99280.22
2019-05-23T19:38:38.825Z,99315.24
2019-05-23T19:41:14.423Z,99312.23
2019-05-23T19:43:58.265Z,99304.46
2019-05-23T19:46:51.361Z,99298.66
2019-05-23T19:58:03.900Z,99302.59
2019-05-23T20:00:59.406Z,99299.25
2019-05-23T20:03:32.797Z,99300.77
2019-05-23T20:06:06.787Z,99292.95
2019-05-23T20:08:49.771Z,99296.62
2019-05-23T20:11:22.405Z,99293.95
2019-05-23T20:13:54.837Z,99290.34
2019-05-23T20:16:27.297Z,99291.66
2019-05-23T20:18:59.977Z,99289.36
2019-05-23T20:21:32.215Z,99286.72
2019-05-23T20:24:08.146Z,99283.76
2019-05-23T20:26:45.176Z,99276.47
2019-05-23T20:29:16.673Z,99276.47
2019-05-23T20:31:50.023Z,99271.17
2019-05-23T20:34:25.413Z,99272.85
2019-05-23T20:37:00.261Z,99268.73
2019-05-23T20:39:36.451Z,99261.45
2019-05-23T20:42:11.597Z,99259.33
2019-05-23T20:44:42.398Z,99260.67
2019-05-23T20:47:17.592Z,99258.67
2019-05-23T20:49:49.901Z,99257.54
2019-05-23T20:52:22.212Z,99263.02
2019-05-23T20:54:54.192Z,99254.08
2019-05-23T20:57:26.900Z,99255.42
2019-05-23T20:59:59.433Z,99255.73
2019-05-23T21:02:36.110Z,99248.80
2019-05-23T21:05:08.846Z,99248.12
2019-05-23T21:07:41.325Z,99251.78
2019-05-23T21:10:16.313Z,99250.45
2019-05-23T21:13:01.992Z,99256.75
2019-05-23T21:15:33.431Z,99259.58
2019-05-23T21:18:05.767Z,99256.93
2019-05-23T21:20:38.212Z,99257.09
2019-05-23T21:23:10.264Z,99257.09
2019-05-23T21:25:46.607Z,99258.41
2019-05-23T21:28:18.128Z,99260.70
2019-05-23T21:30:50.421Z,99257.41
2019-05-23T21:33:22.538Z,99254.09
2019-05-23T21:35:54.614Z,99250.78
2019-05-23T21:38:27.294Z,99252.95
2019-05-23T21:41:03.250Z,99248.80
2019-05-23T21:43:33.924Z,99248.16
2019-05-23T21:46:06.146Z,99245.48
2019-05-23T21:48:37.650Z,99249.48
2019-05-23T21:51:10.194Z,99246.98
2019-05-23T21:53:42.620Z,99236.06
2019-05-23T21:56:15.031Z,99240.38
2019-05-23T21:58:47.058Z,99238.22
2019-05-23T22:01:37.860Z,99240.84
2019-05-23T22:04:27.799Z,99237.55
2019-05-23T22:07:10.888Z,99247.14
2019-05-23T22:09:42.562Z,99241.18
2019-05-23T22:12:15.607Z,99242.51
2019-05-23T22:14:48.268Z,99241.00
2019-05-23T22:17:22.429Z,99245.44
2019-05-23T22:19:54.582Z,99241.97
2019-05-23T22:22:26.080Z,99240.50
2019-05-23T22:24:58.543Z,99241.77
2019-05-23T22:27:30.923Z,99238.14
2019-05-23T22:30:02.522Z,99235.00
2019-05-23T22:32:35.093Z,99236.33
2019-05-23T22:35:15.025Z,99239.83
2019-05-23T22:37:47.498Z,99235.64
2019-05-23T22:40:19.488Z,99239.48
2019-05-23T22:42:51.244Z,99238.50
2019-05-23T22:45:26.222Z,99238.16
2019-05-23T22:47:58.621Z,99232.05
2019-05-23T22:50:30.795Z,99238.29
2019-05-23T22:53:03.313Z,99232.17
2019-05-23T22:55:34.785Z,99229.41
2019-05-23T22:58:07.575Z,99232.17
2019-05-23T23:00:41.584Z,99228.89
2019-05-23T23:03:13.092Z,99233.22
2019-05-23T23:05:45.516Z,99235.37
2019-05-23T23:08:18.281Z,99228.42
2019-05-23T23:10:50.336Z,99224.95
2019-05-23T23:13:37.729Z,99220.65
2019-05-23T23:15:56.666Z,99219.66
2019-05-23T23:18:28.768Z,99211.03
2019-05-23T23:21:01.141Z,99212.05
2019-05-23T23:23:33.552Z,99208.91
2019-05-23T23:26:06.102Z,99205.26
2019-05-23T23:28:37.958Z,99205.26
2019-05-23T23:31:10.087Z,99200.95
2019-05-23T23:33:42.486Z,99203.11
2019-05-23T23:36:14.055Z,99196.81
2019-05-23T23:38:46.169Z,99196.81
2019-05-23T23:41:17.761Z,99196.82
2019-05-23T23:43:59.286Z,99199.30
2019-05-23T23:46:41.629Z,99193.69
2019-05-23T23:49:32.057Z,99191.72
2019-05-23T23:52:21.623Z,99190.06
2019-05-23T23:55:11.199Z,99182.95
2019-05-23T23:58:00.803Z,99182.28
